Terminal Aerodrome Forecast
Issued by NWS Sterling, VA

Home | Current Version | Previous Version | Text Only | Print | Product List | Glossary On
Versions: 1 2 3 4 5 6 7 8 9 10 11 12 13 14 15 16 17 18 19 20 21 22
000
FTUS41 KLWX 231700
TAFBWI
TAF
KBWI 231735Z 2318/2424 20006KT P6SM SCT040
     FM232000 21008KT P6SM VCTS BKN040CB
     FM240200 25004KT P6SM VCTS BKN040CB BKN080
     FM240600 30004KT P6SM BKN040 BKN080
     FM241200 35008KT P6SM BKN040 OVC080=

USA.gov is the U.S. government's official web portal to all federal, state and local government web resources and services.